createdAt,value
2022-11-24T00:01:22.675Z,10.50
2022-11-24T00:03:24.654Z,10.50
2022-11-24T00:05:27.158Z,10.50
2022-11-24T00:07:29.065Z,10.50
2022-11-24T00:09:30.990Z,10.40
2022-11-24T00:11:35.061Z,10.50
2022-11-24T00:13:40.967Z,10.40
2022-11-24T00:15:42.797Z,10.40
2022-11-24T00:17:44.669Z,10.40
2022-11-24T00:19:46.599Z,10.40
2022-11-24T00:22:17.647Z,10.40
2022-11-24T00:24:19.576Z,10.40
2022-11-24T00:26:24.362Z,10.30
2022-11-24T00:28:26.306Z,10.30
2022-11-24T00:30:28.464Z,10.20
2022-11-24T00:32:30.692Z,10.20
2022-11-24T00:34:33.591Z,10.20
2022-11-24T00:36:36.957Z,10.20
2022-11-24T00:38:38.945Z,10.20
2022-11-24T00:40:40.816Z,10.20
2022-11-24T00:42:43.206Z,10.10
2022-11-24T00:44:45.058Z,10.10
2022-11-24T00:46:47.048Z,10.00
2022-11-24T00:48:49.409Z,10.10
2022-11-24T00:50:58.749Z,10.00
2022-11-24T00:53:00.706Z,10.10
2022-11-24T00:55:02.578Z,10.10
2022-11-24T00:57:04.517Z,10.00
2022-11-24T00:59:06.711Z,10.00
2022-11-24T01:01:15.914Z,10.00
2022-11-24T01:03:19.728Z,10.00
2022-11-24T01:05:21.563Z,9.90
2022-11-24T01:07:23.487Z,9.90
2022-11-24T01:09:25.444Z,9.90
2022-11-24T01:11:50.425Z,9.80
2022-11-24T01:13:57.726Z,9.80
2022-11-24T01:15:59.720Z,9.80
2022-11-24T01:18:01.865Z,9.80
2022-11-24T01:20:04.715Z,9.80
2022-11-24T01:22:07.207Z,9.80
2022-11-24T01:24:10.453Z,9.80
2022-11-24T01:26:17.025Z,9.80
2022-11-24T01:28:18.862Z,9.80
2022-11-24T01:30:22.210Z,9.70
2022-11-24T01:32:24.005Z,9.70
2022-11-24T01:34:25.778Z,9.70
2022-11-24T01:36:27.585Z,9.70
2022-11-24T01:38:29.517Z,9.70
2022-11-24T01:40:31.926Z,9.80
2022-11-24T01:42:54.073Z,9.80
2022-11-24T01:45:32.947Z,9.80
2022-11-24T01:47:40.897Z,9.80
2022-11-24T01:49:53.477Z,9.90
2022-11-24T01:52:04.441Z,9.90
2022-11-24T01:54:10.768Z,9.90
2022-11-24T01:56:13.649Z,9.90
2022-11-24T01:58:20.602Z,9.90
2022-11-24T02:00:22.908Z,10.00
2022-11-24T02:02:28.111Z,9.90
2022-11-24T02:04:33.235Z,10.00
2022-11-24T02:06:37.091Z,9.90
2022-11-24T02:09:07.602Z,9.90
2022-11-24T02:11:09.880Z,10.00
2022-11-24T02:13:12.232Z,9.90
2022-11-24T02:15:15.249Z,9.90
2022-11-24T02:17:17.397Z,9.90
2022-11-24T02:19:38.325Z,9.90
2022-11-24T02:21:40.580Z,9.90
2022-11-24T02:23:57.374Z,10.00
2022-11-24T02:26:03.505Z,10.00
2022-11-24T02:28:08.934Z,10.00
2022-11-24T02:30:13.618Z,10.00
2022-11-24T02:32:16.698Z,10.00
2022-11-24T02:34:18.727Z,10.00
2022-11-24T02:36:20.763Z,10.00
2022-11-24T02:38:33.623Z,10.00
2022-11-24T02:40:35.598Z,10.10
2022-11-24T02:42:41.959Z,10.10
2022-11-24T02:44:50.904Z,10.10
2022-11-24T02:47:04.340Z,9.90
2022-11-24T02:49:06.325Z,10.00
2022-11-24T02:51:08.161Z,10.00
2022-11-24T02:53:09.982Z,10.00
2022-11-24T02:55:11.830Z,10.00
2022-11-24T02:57:13.824Z,10.00
2022-11-24T02:59:15.642Z,10.00
2022-11-24T03:01:18.886Z,10.00
2022-11-24T03:03:24.129Z,9.90
2022-11-24T03:05:26.309Z,10.00
2022-11-24T03:07:28.147Z,10.00
2022-11-24T03:09:31.306Z,10.00
2022-11-24T03:11:33.237Z,10.00
2022-11-24T03:13:35.238Z,10.00
2022-11-24T03:15:37.271Z,10.00
2022-11-24T03:17:39.236Z,10.00
2022-11-24T03:19:41.016Z,10.00
2022-11-24T03:21:42.849Z,10.00
2022-11-24T03:23:44.887Z,10.00
2022-11-24T03:25:46.710Z,10.00
2022-11-24T03:27:48.546Z,10.00
2022-11-24T03:29:50.307Z,10.10
2022-11-24T03:31:52.179Z,10.10
2022-11-24T03:33:54.174Z,10.00
2022-11-24T03:35:56.443Z,10.10
2022-11-24T03:37:58.322Z,10.10
2022-11-24T03:40:00.185Z,10.00
2022-11-24T03:42:01.980Z,10.10
2022-11-24T03:44:03.943Z,10.10
2022-11-24T03:46:05.872Z,10.10
2022-11-24T03:48:08.427Z,10.10
2022-11-24T03:50:10.392Z,10.20
2022-11-24T03:52:12.191Z,10.10
2022-11-24T03:54:14.003Z,10.20
2022-11-24T03:56:16.589Z,10.20
2022-11-24T03:58:19.328Z,10.20
2022-11-24T04:00:22.596Z,10.20
2022-11-24T04:02:24.638Z,10.20
2022-11-24T04:04:26.456Z,10.20
2022-11-24T04:06:28.561Z,10.20
2022-11-24T04:08:30.429Z,10.30
2022-11-24T04:10:35.827Z,10.20
2022-11-24T04:12:46.789Z,10.30
2022-11-24T04:14:48.629Z,10.30
2022-11-24T04:16:50.393Z,10.30
2022-11-24T04:18:53.422Z,10.20
2022-11-24T04:20:55.149Z,10.30
2022-11-24T04:22:56.949Z,10.30
2022-11-24T04:24:58.733Z,10.20
2022-11-24T04:27:00.446Z,10.20
2022-11-24T04:29:02.166Z,10.30
2022-11-24T04:31:05.680Z,10.20
2022-11-24T04:33:07.401Z,10.20
2022-11-24T04:35:09.377Z,10.20
2022-11-24T04:37:11.154Z,10.20
2022-11-24T04:39:22.783Z,10.20
2022-11-24T04:41:28.404Z,10.20
2022-11-24T04:43:30.913Z,10.20
2022-11-24T04:45:32.691Z,10.30
2022-11-24T04:47:34.756Z,10.30
2022-11-24T04:49:36.448Z,10.20
2022-11-24T04:51:41.802Z,10.20
2022-11-24T04:53:43.512Z,10.30
2022-11-24T04:55:45.262Z,10.30
2022-11-24T04:57:46.989Z,10.30
2022-11-24T04:59:50.027Z,10.30
2022-11-24T05:01:51.897Z,10.30
2022-11-24T05:03:54.587Z,10.30
2022-11-24T05:05:59.601Z,10.30
2022-11-24T05:08:02.178Z,10.30
2022-11-24T05:10:22.873Z,10.30
2022-11-24T05:12:24.826Z,10.30
2022-11-24T05:14:28.441Z,10.30
2022-11-24T05:16:30.317Z,10.30
2022-11-24T05:18:32.341Z,10.30
2022-11-24T05:20:34.732Z,10.30
2022-11-24T05:22:36.493Z,10.30
2022-11-24T05:24:38.262Z,10.30
2022-11-24T05:26:40.012Z,10.30
2022-11-24T05:28:41.727Z,10.30
2022-11-24T05:30:43.908Z,10.30
2022-11-24T05:32:45.742Z,10.30
2022-11-24T05:34:47.998Z,10.30
2022-11-24T05:36:52.781Z,10.30
2022-11-24T05:38:54.509Z,10.30
2022-11-24T05:41:04.670Z,10.30
2022-11-24T05:43:13.837Z,10.30
2022-11-24T05:45:18.275Z,10.30
2022-11-24T05:47:21.943Z,10.30
2022-11-24T05:49:23.743Z,10.60
2022-11-24T05:51:25.472Z,10.30
2022-11-24T05:53:27.247Z,10.30
2022-11-24T05:55:28.949Z,10.30
2022-11-24T05:57:30.740Z,10.40
2022-11-24T05:59:32.499Z,10.40
2022-11-24T06:01:34.680Z,10.40
2022-11-24T06:03:36.747Z,10.30
2022-11-24T06:05:38.761Z,10.30
2022-11-24T06:07:40.530Z,10.20
2022-11-24T06:09:43.197Z,10.30
2022-11-24T06:11:44.955Z,10.30
2022-11-24T06:13:48.661Z,10.30
2022-11-24T06:15:50.660Z,10.30
2022-11-24T06:17:56.354Z,10.30
2022-11-24T06:19:58.116Z,10.30
2022-11-24T06:21:59.845Z,10.30
2022-11-24T06:24:02.393Z,10.40
2022-11-24T06:26:04.239Z,10.40
2022-11-24T06:28:06.732Z,10.40
2022-11-24T06:30:09.189Z,10.40
2022-11-24T06:32:10.938Z,10.30
2022-11-24T06:34:13.131Z,10.30
2022-11-24T06:36:15.334Z,10.40
2022-11-24T06:38:22.923Z,10.40
2022-11-24T06:40:25.962Z,10.40
2022-11-24T06:42:27.687Z,10.40
2022-11-24T06:44:29.452Z,10.40
2022-11-24T06:46:31.490Z,10.40
2022-11-24T06:48:33.222Z,10.40
2022-11-24T06:50:35.616Z,10.40
2022-11-24T06:52:37.374Z,10.40
2022-11-24T06:54:39.169Z,10.40
2022-11-24T06:56:41.005Z,10.40
2022-11-24T06:58:47.951Z,10.40
2022-11-24T07:00:49.693Z,10.40
2022-11-24T07:02:51.483Z,10.40
2022-11-24T07:04:53.265Z,10.50
2022-11-24T07:06:55.085Z,10.50
2022-11-24T07:08:56.898Z,10.50
2022-11-24T07:11:07.601Z,10.50
2022-11-24T07:13:09.993Z,10.50
2022-11-24T07:15:11.788Z,10.50
2022-11-24T07:17:13.478Z,10.50
2022-11-24T07:19:20.144Z,10.50
2022-11-24T07:21:26.382Z,10.50
2022-11-24T07:23:28.105Z,10.50
2022-11-24T07:25:29.849Z,10.60
2022-11-24T07:27:31.625Z,10.50
2022-11-24T07:29:33.806Z,10.60
2022-11-24T07:31:35.679Z,10.60
2022-11-24T07:33:38.288Z,10.60
2022-11-24T07:35:40.367Z,10.60
2022-11-24T07:37:42.348Z,10.70
2022-11-24T07:39:44.161Z,10.60
2022-11-24T07:41:45.938Z,10.60
2022-11-24T07:43:48.758Z,10.60
2022-11-24T07:45:54.060Z,10.60
2022-11-24T07:47:56.158Z,10.60
2022-11-24T07:49:57.867Z,10.50
2022-11-24T07:52:00.720Z,10.60
2022-11-24T07:54:02.750Z,10.60
2022-11-24T07:56:06.450Z,10.50
2022-11-24T07:58:08.508Z,10.60
2022-11-24T08:00:11.173Z,10.50
2022-11-24T08:02:13.750Z,10.50
2022-11-24T08:04:15.466Z,10.50
2022-11-24T08:06:27.715Z,10.60
2022-11-24T08:08:35.325Z,10.60
2022-11-24T08:10:37.152Z,10.60
2022-11-24T08:12:39.008Z,10.60
2022-11-24T08:14:40.729Z,10.60
2022-11-24T08:16:42.526Z,10.60
2022-11-24T08:18:49.377Z,10.60
2022-11-24T08:20:51.173Z,10.70
2022-11-24T08:23:01.784Z,10.70
2022-11-24T08:25:03.790Z,10.70
2022-11-24T08:27:06.830Z,10.70
2022-11-24T08:29:08.993Z,10.70
2022-11-24T08:31:18.574Z,10.70
2022-11-24T08:33:20.742Z,10.80
2022-11-24T08:35:22.557Z,10.70
2022-11-24T08:37:26.317Z,10.70
2022-11-24T08:39:28.118Z,10.80
2022-11-24T08:41:30.771Z,10.90
2022-11-24T08:43:33.044Z,10.80
2022-11-24T08:45:39.865Z,10.90
2022-11-24T08:47:43.263Z,10.90
2022-11-24T08:49:45.609Z,10.90
2022-11-24T08:51:48.528Z,10.90
2022-11-24T08:53:58.220Z,10.90
2022-11-24T08:56:00.972Z,10.90
2022-11-24T08:58:02.837Z,11.00
2022-11-24T09:00:06.289Z,11.00
2022-11-24T09:02:12.912Z,11.00
2022-11-24T09:04:14.795Z,11.00
2022-11-24T09:06:18.313Z,11.00
2022-11-24T09:08:20.659Z,11.00
2022-11-24T09:10:22.455Z,11.00
2022-11-24T09:12:24.393Z,11.00
2022-11-24T09:14:26.258Z,11.10
2022-11-24T09:16:29.252Z,11.00
2022-11-24T09:18:31.059Z,11.10
2022-11-24T09:20:32.961Z,11.10
2022-11-24T09:22:34.995Z,11.20
2022-11-24T09:24:36.765Z,11.20
2022-11-24T09:26:44.580Z,11.20
2022-11-24T09:28:48.129Z,11.20
2022-11-24T09:30:49.961Z,11.20
2022-11-24T09:32:51.883Z,11.20
2022-11-24T09:34:53.660Z,11.30
2022-11-24T09:36:55.691Z,11.20
2022-11-24T09:38:57.548Z,11.20
2022-11-24T09:41:17.736Z,11.20
2022-11-24T09:43:34.148Z,11.30
2022-11-24T09:48:29.432Z,11.40
2022-11-24T09:50:36.458Z,11.40
2022-11-24T09:52:53.561Z,11.40
2022-11-24T09:55:00.238Z,11.40
2022-11-24T09:57:06.232Z,11.40
2022-11-24T09:59:14.965Z,11.40
2022-11-24T10:01:21.262Z,11.50
2022-11-24T10:03:38.965Z,11.50
2022-11-24T10:05:40.990Z,11.50
2022-11-24T10:07:55.269Z,11.50
2022-11-24T10:09:57.098Z,11.50
2022-11-24T10:12:27.609Z,11.50
2022-11-24T10:15:02.436Z,11.60
2022-11-24T10:17:12.075Z,11.60
2022-11-24T10:19:37.316Z,11.60
2022-11-24T10:22:08.938Z,11.60
2022-11-24T10:24:32.298Z,11.70
2022-11-24T10:27:03.809Z,11.70
2022-11-24T10:29:43.060Z,11.70
2022-11-24T10:31:47.283Z,11.80
2022-11-24T10:33:49.976Z,11.80
2022-11-24T10:36:11.857Z,11.80
2022-11-24T10:38:28.144Z,11.80
2022-11-24T10:40:58.598Z,11.80
2022-11-24T10:43:00.701Z,11.80
2022-11-24T10:45:10.100Z,11.70
2022-11-24T10:47:20.498Z,11.70
2022-11-24T10:49:28.173Z,11.70
2022-11-24T10:52:01.291Z,11.70
2022-11-24T10:54:13.807Z,11.80
2022-11-24T10:56:15.769Z,11.70
2022-11-24T10:58:17.513Z,11.80
2022-11-24T11:00:19.247Z,11.80
2022-11-24T11:02:34.776Z,11.70
2022-11-24T11:04:36.592Z,11.80
2022-11-24T11:06:38.366Z,11.70
2022-11-24T11:08:40.711Z,11.70
2022-11-24T11:10:44.599Z,11.80
2022-11-24T11:12:46.668Z,11.80
2022-11-24T11:14:48.520Z,11.80
2022-11-24T11:16:53.448Z,11.80
2022-11-24T11:18:55.172Z,11.80
2022-11-24T11:21:01.833Z,11.80
2022-11-24T11:23:21.066Z,11.80
2022-11-24T11:25:36.331Z,11.90
2022-11-24T11:27:39.670Z,11.90
2022-11-24T11:34:38.454Z,12.00
2022-11-24T11:37:02.334Z,12.00
2022-11-24T11:39:04.669Z,12.10
2022-11-24T11:41:13.921Z,12.00
2022-11-24T11:43:30.351Z,12.10
2022-11-24T11:45:35.867Z,12.10
2022-11-24T11:48:02.174Z,12.10
2022-11-24T11:50:11.978Z,12.10
2022-11-24T11:52:58.254Z,12.10
2022-11-24T11:55:52.301Z,12.10
2022-11-24T11:57:56.659Z,12.10
2022-11-24T12:00:04.543Z,12.00
2022-11-24T12:02:33.578Z,12.00
2022-11-24T12:04:35.666Z,12.10
2022-11-24T12:07:03.382Z,12.00
2022-11-24T12:09:56.196Z,12.00
2022-11-24T12:12:10.279Z,12.00
2022-11-24T12:14:21.728Z,12.00
2022-11-24T12:16:30.759Z,12.00
2022-11-24T12:18:58.667Z,12.00
2022-11-24T12:21:06.744Z,12.00
2022-11-24T12:23:13.999Z,12.00
2022-11-24T12:25:25.327Z,12.00
2022-11-24T12:27:47.273Z,12.00
2022-11-24T12:30:24.086Z,12.00
2022-11-24T12:32:41.177Z,12.00
2022-11-24T12:35:03.184Z,12.00
2022-11-24T12:37:46.775Z,12.00
2022-11-24T12:40:15.030Z,12.10
2022-11-24T12:42:50.949Z,12.10
2022-11-24T12:45:15.621Z,12.20
2022-11-24T12:47:42.041Z,12.10
2022-11-24T12:50:01.276Z,12.20
2022-11-24T12:52:33.741Z,12.20
2022-11-24T12:54:40.797Z,12.20
2022-11-24T12:57:09.248Z,12.20
2022-11-24T12:59:14.064Z,12.20
2022-11-24T13:01:22.076Z,12.10
2022-11-24T13:03:44.294Z,12.20
2022-11-24T13:05:55.071Z,12.20
2022-11-24T13:08:00.457Z,12.10
2022-11-24T13:10:46.617Z,12.20
2022-11-24T13:13:05.644Z,12.20
2022-11-24T13:15:43.401Z,12.30
2022-11-24T13:17:58.445Z,12.30
2022-11-24T13:20:21.886Z,12.20
2022-11-24T13:22:25.755Z,12.30
2022-11-24T13:24:30.881Z,12.30
2022-11-24T13:26:41.513Z,12.20
2022-11-24T13:29:17.882Z,12.20
2022-11-24T13:31:26.604Z,12.20
2022-11-24T13:33:33.283Z,12.20
2022-11-24T13:35:34.999Z,12.30
2022-11-24T13:37:36.750Z,12.20
2022-11-24T13:39:58.182Z,12.20
2022-11-24T13:42:00.568Z,12.30
2022-11-24T13:44:14.894Z,12.30
2022-11-24T13:46:58.683Z,12.40
2022-11-24T13:49:14.071Z,12.40
2022-11-24T13:51:23.768Z,12.40
2022-11-24T13:53:45.261Z,12.40
2022-11-24T13:56:12.943Z,12.40
2022-11-24T13:58:14.803Z,12.50
2022-11-24T14:00:31.986Z,12.50
2022-11-24T14:02:34.624Z,12.60
2022-11-24T14:04:39.420Z,12.60
2022-11-24T14:06:46.289Z,12.60
2022-11-24T14:08:48.808Z,12.60
2022-11-24T14:10:51.349Z,12.50
2022-11-24T14:13:18.277Z,12.50
2022-11-24T14:15:23.405Z,12.40
2022-11-24T14:17:28.228Z,12.40
2022-11-24T14:19:32.220Z,12.30
2022-11-24T14:21:41.272Z,12.30
2022-11-24T14:23:48.112Z,12.30
2022-11-24T14:25:51.216Z,12.20
2022-11-24T14:27:53.176Z,12.20
2022-11-24T14:30:26.319Z,12.20
2022-11-24T14:32:28.844Z,12.20
2022-11-24T14:34:35.458Z,12.10
2022-11-24T14:36:38.832Z,12.10
2022-11-24T14:38:41.050Z,12.10
2022-11-24T14:40:48.821Z,12.10
2022-11-24T14:42:51.571Z,12.00
2022-11-24T14:45:03.955Z,12.00
2022-11-24T14:47:31.816Z,12.00
2022-11-24T14:49:35.274Z,12.00
2022-11-24T14:51:42.628Z,11.90
2022-11-24T14:53:46.764Z,12.00
2022-11-24T14:56:07.167Z,12.00
2022-11-24T14:58:30.121Z,11.90
2022-11-24T15:00:33.492Z,12.00
2022-11-24T15:02:48.421Z,12.00
2022-11-24T15:05:04.753Z,12.00
2022-11-24T15:07:14.326Z,12.00
2022-11-24T15:09:25.803Z,12.00
2022-11-24T15:11:31.319Z,12.10
2022-11-24T15:13:38.724Z,12.00
2022-11-24T15:15:46.267Z,12.00
2022-11-24T15:17:57.311Z,12.00
2022-11-24T15:20:11.930Z,12.00
2022-11-24T15:22:34.305Z,12.00
2022-11-24T15:24:50.757Z,12.00
2022-11-24T15:27:00.452Z,11.90
2022-11-24T15:29:02.254Z,12.00
2022-11-24T15:31:11.949Z,11.90
2022-11-24T15:33:18.549Z,11.90
2022-11-24T15:35:22.657Z,11.90
2022-11-24T15:37:24.460Z,11.80
2022-11-24T15:39:26.244Z,11.80
2022-11-24T15:41:30.903Z,11.80
2022-11-24T15:43:39.525Z,11.80
2022-11-24T15:45:41.268Z,11.80
2022-11-24T15:47:43.150Z,11.80
2022-11-24T15:49:44.857Z,11.80
2022-11-24T15:51:47.955Z,11.70
2022-11-24T15:53:55.762Z,11.70
2022-11-24T15:56:03.715Z,11.70
2022-11-24T15:58:05.574Z,11.70
2022-11-24T16:00:08.539Z,11.60
2022-11-24T16:02:13.882Z,11.60
2022-11-24T16:04:16.168Z,11.60
2022-11-24T16:06:24.723Z,11.60
2022-11-24T16:08:27.290Z,11.60
2022-11-24T16:10:32.676Z,11.60
2022-11-24T16:12:34.475Z,11.60
2022-11-24T16:14:36.626Z,11.50
2022-11-24T16:16:40.633Z,11.50
2022-11-24T16:18:42.668Z,11.50
2022-11-24T16:20:44.420Z,11.50
2022-11-24T16:22:46.480Z,11.50
2022-11-24T16:24:48.224Z,11.50
2022-11-24T16:26:49.987Z,11.50
2022-11-24T16:28:51.969Z,11.50
2022-11-24T16:30:53.725Z,11.50
2022-11-24T16:32:55.437Z,11.50
2022-11-24T16:34:57.129Z,11.50
2022-11-24T16:36:58.917Z,11.50
2022-11-24T16:39:00.647Z,11.50
2022-11-24T16:41:02.379Z,11.50
2022-11-24T16:43:04.133Z,11.50
2022-11-24T16:45:06.424Z,11.40
2022-11-24T16:47:08.226Z,11.40
2022-11-24T16:49:09.972Z,11.40
2022-11-24T16:51:12.618Z,11.40
2022-11-24T16:53:14.686Z,11.40
2022-11-24T16:55:16.583Z,11.40
2022-11-24T16:57:18.419Z,11.40
2022-11-24T16:59:20.919Z,11.40
2022-11-24T17:01:23.172Z,11.40
2022-11-24T17:03:25.034Z,11.40
2022-11-24T17:05:27.205Z,11.40
2022-11-24T17:07:29.151Z,11.40
2022-11-24T17:09:33.839Z,11.40
2022-11-24T17:11:37.947Z,11.40
2022-11-24T17:13:41.838Z,11.40
2022-11-24T17:15:48.406Z,11.40
2022-11-24T17:18:22.297Z,11.40
2022-11-24T17:20:14.681Z,11.50
2022-11-24T17:22:16.394Z,11.50
2022-11-24T17:24:18.339Z,11.50
2022-11-24T17:26:20.125Z,11.50
2022-11-24T17:28:21.874Z,11.50
2022-11-24T17:30:24.030Z,11.50
2022-11-24T17:32:25.853Z,11.50
2022-11-24T17:34:30.771Z,11.50
2022-11-24T17:36:34.019Z,11.50
2022-11-24T17:38:36.194Z,11.50
2022-11-24T17:40:38.091Z,11.50
2022-11-24T17:42:40.024Z,11.50
2022-11-24T17:44:41.771Z,11.50
2022-11-24T17:46:43.588Z,11.50
2022-11-24T17:48:46.731Z,11.60
2022-11-24T17:50:48.972Z,11.60
2022-11-24T17:52:50.834Z,11.40
2022-11-24T17:54:52.526Z,11.50
2022-11-24T17:56:54.235Z,11.50
2022-11-24T17:59:01.173Z,11.50
2022-11-24T18:01:03.054Z,11.50
2022-11-24T18:03:05.804Z,11.50
2022-11-24T18:05:08.039Z,11.50
2022-11-24T18:07:09.888Z,11.50
2022-11-24T18:09:12.196Z,11.50
2022-11-24T18:11:27.280Z,11.40
2022-11-24T18:13:54.988Z,11.50
2022-11-24T18:15:54.169Z,11.40
2022-11-24T18:17:56.004Z,11.40
2022-11-24T18:19:57.819Z,11.50
2022-11-24T18:21:59.587Z,11.40
2022-11-24T18:24:01.442Z,11.40
2022-11-24T18:26:05.705Z,11.40
2022-11-24T18:28:07.440Z,11.40
2022-11-24T18:30:09.593Z,11.40
2022-11-24T18:32:11.373Z,11.40
2022-11-24T18:34:13.219Z,11.40
2022-11-24T18:36:17.990Z,11.40
2022-11-24T18:38:19.713Z,11.40
2022-11-24T18:40:21.581Z,11.30
2022-11-24T18:42:25.518Z,11.30
2022-11-24T18:44:27.391Z,11.30
2022-11-24T18:46:29.316Z,11.30
2022-11-24T18:48:31.195Z,11.20
2022-11-24T18:50:33.270Z,11.20
2022-11-24T18:52:35.060Z,11.20
2022-11-24T18:54:37.243Z,11.20
2022-11-24T18:56:39.078Z,11.10
2022-11-24T18:58:43.384Z,11.10
2022-11-24T19:00:45.294Z,11.10
2022-11-24T19:02:53.869Z,11.00
2022-11-24T19:04:56.245Z,11.10
2022-11-24T19:06:58.046Z,11.00
2022-11-24T19:09:12.649Z,11.00
2022-11-24T19:11:21.700Z,11.00
2022-11-24T19:13:25.118Z,11.00
2022-11-24T19:15:33.052Z,10.90
2022-11-24T19:17:34.809Z,10.90
2022-11-24T19:19:36.697Z,10.90
2022-11-24T19:21:39.529Z,10.90
2022-11-24T19:23:41.601Z,10.90
2022-11-24T19:25:43.462Z,10.90
2022-11-24T19:27:45.350Z,10.80
2022-11-24T19:29:50.730Z,10.80
2022-11-24T19:31:56.423Z,10.80
2022-11-24T19:33:59.628Z,10.90
2022-11-24T19:36:16.423Z,10.80
2022-11-24T19:38:18.185Z,10.80
2022-11-24T19:40:19.987Z,10.80
2022-11-24T19:42:21.782Z,10.80
2022-11-24T19:44:24.941Z,10.70
2022-11-24T19:46:29.455Z,10.80
2022-11-24T19:48:33.150Z,10.70
2022-11-24T19:50:34.874Z,10.70
2022-11-24T19:52:36.665Z,10.70
2022-11-24T19:54:39.268Z,10.60
2022-11-24T19:56:41.842Z,10.60
2022-11-24T19:58:43.607Z,10.60
2022-11-24T20:00:45.420Z,10.60
2022-11-24T20:02:47.243Z,10.50
2022-11-24T20:04:49.281Z,10.50
2022-11-24T20:06:51.514Z,10.50
2022-11-24T20:08:53.508Z,10.50
2022-11-24T20:10:55.248Z,10.50
2022-11-24T20:12:57.071Z,10.50
2022-11-24T20:14:58.888Z,10.50
2022-11-24T20:17:00.927Z,10.60
2022-11-24T20:19:10.655Z,10.60
2022-11-24T20:21:17.846Z,10.60
2022-11-24T20:23:19.574Z,10.60
2022-11-24T20:25:21.325Z,10.60
2022-11-24T20:27:23.236Z,10.50
2022-11-24T20:29:25.102Z,10.50
2022-11-24T20:31:32.265Z,10.50
2022-11-24T20:33:35.505Z,10.60
2022-11-24T20:35:37.536Z,10.50
2022-11-24T20:37:39.298Z,10.60
2022-11-24T20:39:42.504Z,10.60
2022-11-24T20:41:44.687Z,10.60
2022-11-24T20:43:48.164Z,10.60
2022-11-24T20:45:49.978Z,10.50
2022-11-24T20:47:51.803Z,10.60
2022-11-24T20:49:53.604Z,10.60
2022-11-24T20:51:57.081Z,10.50
2022-11-24T20:54:01.708Z,10.60
2022-11-24T20:56:10.083Z,10.60
2022-11-24T20:58:11.992Z,10.60
2022-11-24T21:00:14.045Z,10.60
2022-11-24T21:02:15.816Z,10.60
2022-11-24T21:04:21.513Z,10.60
2022-11-24T21:06:23.644Z,10.60
2022-11-24T21:08:25.487Z,10.60
2022-11-24T21:10:27.296Z,10.60
2022-11-24T21:12:29.348Z,10.60
2022-11-24T21:14:35.070Z,10.70
2022-11-24T21:16:39.378Z,10.60
2022-11-24T21:18:41.636Z,10.70
2022-11-24T21:20:43.827Z,10.70
2022-11-24T21:22:45.565Z,10.70
2022-11-24T21:24:47.312Z,10.70
2022-11-24T21:26:51.725Z,10.70
2022-11-24T21:28:54.486Z,10.70
2022-11-24T21:30:56.473Z,10.80
2022-11-24T21:32:58.169Z,10.80
2022-11-24T21:35:04.317Z,10.80
2022-11-24T21:37:07.077Z,10.80
2022-11-24T21:39:12.051Z,10.80
2022-11-24T21:41:14.009Z,10.80
2022-11-24T21:43:17.072Z,10.80
2022-11-24T21:45:18.935Z,10.80
2022-11-24T21:47:20.754Z,10.80
2022-11-24T21:49:22.661Z,10.80
2022-11-24T21:51:24.371Z,10.80
2022-11-24T21:53:29.619Z,10.80
2022-11-24T21:55:31.584Z,10.80
2022-11-24T21:57:33.484Z,10.80
2022-11-24T21:59:35.411Z,10.80
2022-11-24T22:01:37.179Z,10.80
2022-11-24T22:03:38.949Z,10.80
2022-11-24T22:05:40.838Z,10.80
2022-11-24T22:07:43.562Z,10.70
2022-11-24T22:09:46.704Z,10.80
2022-11-24T22:11:52.551Z,10.70
2022-11-24T22:13:54.370Z,10.80
2022-11-24T22:16:03.971Z,10.70
2022-11-24T22:18:06.108Z,10.70
2022-11-24T22:20:08.432Z,10.70
2022-11-24T22:22:10.154Z,10.60
2022-11-24T22:24:11.971Z,10.60
2022-11-24T22:26:17.227Z,10.60
2022-11-24T22:28:19.068Z,10.60
2022-11-24T22:30:20.828Z,10.60
2022-11-24T22:32:22.642Z,10.60
2022-11-24T22:34:24.392Z,10.60
2022-11-24T22:36:28.697Z,10.60
2022-11-24T22:38:32.083Z,10.60
2022-11-24T22:40:34.023Z,10.70
2022-11-24T22:42:35.747Z,10.70
2022-11-24T22:44:37.770Z,10.70
2022-11-24T22:46:39.595Z,10.60
2022-11-24T22:48:43.573Z,10.70
2022-11-24T22:50:45.258Z,10.70
2022-11-24T22:52:46.976Z,10.70
2022-11-24T22:54:48.707Z,10.70
2022-11-24T22:56:50.526Z,10.70
2022-11-24T22:58:52.568Z,10.70
2022-11-24T23:00:54.630Z,10.70
2022-11-24T23:02:56.391Z,10.70
2022-11-24T23:04:58.207Z,10.80
2022-11-24T23:06:59.911Z,10.70
2022-11-24T23:09:04.607Z,10.80
2022-11-24T23:11:11.852Z,10.80
2022-11-24T23:13:13.726Z,10.80
2022-11-24T23:15:15.520Z,10.70
2022-11-24T23:17:17.359Z,10.80
2022-11-24T23:19:19.199Z,10.80
2022-11-24T23:21:23.245Z,10.90
2022-11-24T23:23:25.118Z,10.80
2022-11-24T23:25:26.944Z,10.80
2022-11-24T23:27:31.654Z,10.90
2022-11-24T23:29:33.344Z,10.90
2022-11-24T23:31:35.473Z,10.90
2022-11-24T23:33:37.844Z,10.90
2022-11-24T23:35:41.035Z,10.90
2022-11-24T23:38:06.441Z,10.90
2022-11-24T23:40:05.124Z,10.90
2022-11-24T23:42:07.154Z,10.90
2022-11-24T23:44:09.291Z,10.90
2022-11-24T23:46:14.440Z,10.90
2022-11-24T23:48:16.443Z,10.90
2022-11-24T23:50:18.240Z,10.90
2022-11-24T23:52:19.986Z,10.90
2022-11-24T23:54:21.920Z,10.90
2022-11-24T23:56:29.187Z,10.90
2022-11-24T23:58:31.790Z,10.90
